sensor_id;sensor_type;location;lat;lon;timestamp;P1;durP1;ratioP1;P2;durP2;ratioP2
19219;SDS011;9744;49.364;7.484;2022-12-16T00:00:02;25.77;;;11.33;;
19219;SDS011;9744;49.364;7.484;2022-12-16T00:02:32;28.97;;;11.00;;
19219;SDS011;9744;49.364;7.484;2022-12-16T00:04:59;25.57;;;10.73;;
19219;SDS011;9744;49.364;7.484;2022-12-16T00:07:27;24.20;;;11.37;;
19219;SDS011;9744;49.364;7.484;2022-12-16T00:09:54;24.17;;;10.70;;
19219;SDS011;9744;49.364;7.484;2022-12-16T00:12:21;31.10;;;11.23;;
19219;SDS011;9744;49.364;7.484;2022-12-16T00:14:48;28.07;;;11.57;;
19219;SDS011;9744;49.364;7.484;2022-12-16T00:17:16;32.43;;;11.63;;
19219;SDS011;9744;49.364;7.484;2022-12-16T00:19:45;28.87;;;11.30;;
19219;SDS011;9744;49.364;7.484;2022-12-16T00:22:12;30.17;;;12.27;;
19219;SDS011;9744;49.364;7.484;2022-12-16T00:24:39;24.43;;;9.87;;
19219;SDS011;9744;49.364;7.484;2022-12-16T00:27:06;28.67;;;10.63;;
19219;SDS011;9744;49.364;7.484;2022-12-16T00:29:34;26.77;;;11.03;;
19219;SDS011;9744;49.364;7.484;2022-12-16T00:32:01;21.93;;;9.73;;
19219;SDS011;9744;49.364;7.484;2022-12-16T00:34:28;22.37;;;9.73;;
19219;SDS011;9744;49.364;7.484;2022-12-16T00:36:57;22.93;;;9.00;;
19219;SDS011;9744;49.364;7.484;2022-12-16T00:39:25;28.07;;;10.93;;
19219;SDS011;9744;49.364;7.484;2022-12-16T00:41:52;24.23;;;10.13;;
19219;SDS011;9744;49.364;7.484;2022-12-16T00:44:19;29.27;;;10.37;;
19219;SDS011;9744;49.364;7.484;2022-12-16T00:46:46;21.63;;;10.00;;
19219;SDS011;9744;49.364;7.484;2022-12-16T00:49:13;25.00;;;10.00;;
19219;SDS011;9744;49.364;7.484;2022-12-16T00:51:40;30.90;;;10.73;;
19219;SDS011;9744;49.364;7.484;2022-12-16T00:54:09;20.80;;;8.93;;
19219;SDS011;9744;49.364;7.484;2022-12-16T00:56:36;24.97;;;10.23;;
19219;SDS011;9744;49.364;7.484;2022-12-16T00:59:03;25.20;;;10.80;;
19219;SDS011;9744;49.364;7.484;2022-12-16T01:01:30;21.97;;;9.67;;
19219;SDS011;9744;49.364;7.484;2022-12-16T01:03:57;22.23;;;8.87;;
19219;SDS011;9744;49.364;7.484;2022-12-16T01:06:25;22.87;;;9.70;;
19219;SDS011;9744;49.364;7.484;2022-12-16T01:08:52;16.97;;;8.23;;
19219;SDS011;9744;49.364;7.484;2022-12-16T01:11:21;20.30;;;8.33;;
19219;SDS011;9744;49.364;7.484;2022-12-16T01:13:48;20.17;;;8.70;;
19219;SDS011;9744;49.364;7.484;2022-12-16T01:16:16;16.83;;;7.77;;
19219;SDS011;9744;49.364;7.484;2022-12-16T01:18:44;17.43;;;8.27;;
19219;SDS011;9744;49.364;7.484;2022-12-16T01:21:11;18.47;;;7.90;;
19219;SDS011;9744;49.364;7.484;2022-12-16T01:23:40;18.53;;;7.67;;
19219;SDS011;9744;49.364;7.484;2022-12-16T01:26:08;17.77;;;8.60;;
19219;SDS011;9744;49.364;7.484;2022-12-16T01:28:41;18.03;;;8.70;;
19219;SDS011;9744;49.364;7.484;2022-12-16T01:31:09;18.83;;;8.53;;
19219;SDS011;9744;49.364;7.484;2022-12-16T01:33:37;24.07;;;8.50;;
19219;SDS011;9744;49.364;7.484;2022-12-16T01:36:05;19.90;;;8.53;;
19219;SDS011;9744;49.364;7.484;2022-12-16T01:38:33;22.03;;;8.63;;
19219;SDS011;9744;49.364;7.484;2022-12-16T01:41:01;22.60;;;9.93;;
19219;SDS011;9744;49.364;7.484;2022-12-16T01:43:30;19.53;;;8.47;;
19219;SDS011;9744;49.364;7.484;2022-12-16T01:46:00;19.90;;;8.43;;
19219;SDS011;9744;49.364;7.484;2022-12-16T01:48:32;20.63;;;8.80;;
19219;SDS011;9744;49.364;7.484;2022-12-16T01:51:06;19.33;;;8.30;;
19219;SDS011;9744;49.364;7.484;2022-12-16T01:53:37;22.53;;;8.70;;
19219;SDS011;9744;49.364;7.484;2022-12-16T01:56:06;16.47;;;7.60;;
19219;SDS011;9744;49.364;7.484;2022-12-16T01:58:36;20.83;;;9.03;;
19219;SDS011;9744;49.364;7.484;2022-12-16T02:01:06;20.23;;;8.63;;
19219;SDS011;9744;49.364;7.484;2022-12-16T02:03:33;16.33;;;7.30;;
19219;SDS011;9744;49.364;7.484;2022-12-16T02:06:02;17.20;;;7.77;;
19219;SDS011;9744;49.364;7.484;2022-12-16T02:08:31;18.80;;;7.70;;
19219;SDS011;9744;49.364;7.484;2022-12-16T02:11:02;19.60;;;7.97;;
19219;SDS011;9744;49.364;7.484;2022-12-16T02:13:43;17.83;;;8.03;;
19219;SDS011;9744;49.364;7.484;2022-12-16T02:16:29;13.73;;;7.17;;
19219;SDS011;9744;49.364;7.484;2022-12-16T02:19:04;17.17;;;7.70;;
19219;SDS011;9744;49.364;7.484;2022-12-16T02:21:45;15.07;;;6.53;;
19219;SDS011;9744;49.364;7.484;2022-12-16T02:30:23;14.60;;;6.97;;
19219;SDS011;9744;49.364;7.484;2022-12-16T02:33:13;12.87;;;6.00;;
19219;SDS011;9744;49.364;7.484;2022-12-16T02:35:55;14.23;;;6.70;;
19219;SDS011;9744;49.364;7.484;2022-12-16T02:38:30;15.67;;;7.13;;
19219;SDS011;9744;49.364;7.484;2022-12-16T02:41:01;15.03;;;6.53;;
19219;SDS011;9744;49.364;7.484;2022-12-16T02:43:34;13.70;;;6.23;;
19219;SDS011;9744;49.364;7.484;2022-12-16T02:46:15;14.43;;;6.67;;
19219;SDS011;9744;49.364;7.484;2022-12-16T02:48:44;12.60;;;5.90;;
19219;SDS011;9744;49.364;7.484;2022-12-16T02:51:11;12.23;;;6.13;;
19219;SDS011;9744;49.364;7.484;2022-12-16T02:53:39;14.33;;;6.77;;
19219;SDS011;9744;49.364;7.484;2022-12-16T02:56:12;13.80;;;6.00;;
19219;SDS011;9744;49.364;7.484;2022-12-16T02:58:54;14.40;;;6.47;;
19219;SDS011;9744;49.364;7.484;2022-12-16T03:01:33;17.60;;;7.20;;
19219;SDS011;9744;49.364;7.484;2022-12-16T03:04:06;15.07;;;6.73;;
19219;SDS011;9744;49.364;7.484;2022-12-16T03:06:37;14.47;;;6.90;;
19219;SDS011;9744;49.364;7.484;2022-12-16T03:09:08;14.50;;;6.40;;
19219;SDS011;9744;49.364;7.484;2022-12-16T03:11:38;13.43;;;6.03;;
19219;SDS011;9744;49.364;7.484;2022-12-16T03:14:09;11.67;;;5.83;;
19219;SDS011;9744;49.364;7.484;2022-12-16T03:16:41;15.80;;;6.90;;
19219;SDS011;9744;49.364;7.484;2022-12-16T03:19:10;14.37;;;7.03;;
19219;SDS011;9744;49.364;7.484;2022-12-16T03:21:42;16.23;;;7.40;;
19219;SDS011;9744;49.364;7.484;2022-12-16T03:24:14;12.47;;;6.23;;
19219;SDS011;9744;49.364;7.484;2022-12-16T03:26:43;15.00;;;7.03;;
19219;SDS011;9744;49.364;7.484;2022-12-16T03:29:20;14.57;;;6.83;;
19219;SDS011;9744;49.364;7.484;2022-12-16T03:31:54;16.23;;;7.13;;
19219;SDS011;9744;49.364;7.484;2022-12-16T03:34:25;14.57;;;6.93;;
19219;SDS011;9744;49.364;7.484;2022-12-16T03:36:58;12.87;;;6.63;;
19219;SDS011;9744;49.364;7.484;2022-12-16T03:39:30;15.00;;;6.90;;
19219;SDS011;9744;49.364;7.484;2022-12-16T03:41:58;15.20;;;7.50;;
19219;SDS011;9744;49.364;7.484;2022-12-16T03:44:28;15.67;;;7.40;;
19219;SDS011;9744;49.364;7.484;2022-12-16T03:46:58;15.67;;;7.73;;
19219;SDS011;9744;49.364;7.484;2022-12-16T03:49:25;13.93;;;6.93;;
19219;SDS011;9744;49.364;7.484;2022-12-16T03:51:52;16.67;;;7.17;;
19219;SDS011;9744;49.364;7.484;2022-12-16T03:54:20;17.80;;;7.43;;
19219;SDS011;9744;49.364;7.484;2022-12-16T03:56:48;15.90;;;7.30;;
19219;SDS011;9744;49.364;7.484;2022-12-16T03:59:15;16.90;;;7.90;;
19219;SDS011;9744;49.364;7.484;2022-12-16T04:01:43;15.37;;;7.17;;
19219;SDS011;9744;49.364;7.484;2022-12-16T04:04:12;19.97;;;7.97;;
19219;SDS011;9744;49.364;7.484;2022-12-16T04:06:39;17.93;;;7.23;;
19219;SDS011;9744;49.364;7.484;2022-12-16T04:09:06;13.43;;;6.73;;
19219;SDS011;9744;49.364;7.484;2022-12-16T04:11:33;15.47;;;6.87;;
19219;SDS011;9744;49.364;7.484;2022-12-16T04:14:20;17.43;;;7.40;;
19219;SDS011;9744;49.364;7.484;2022-12-16T04:17:05;13.77;;;6.67;;
19219;SDS011;9744;49.364;7.484;2022-12-16T04:19:53;14.80;;;7.07;;
19219;SDS011;9744;49.364;7.484;2022-12-16T04:22:39;14.13;;;6.80;;
19219;SDS011;9744;49.364;7.484;2022-12-16T04:25:27;15.30;;;6.90;;
19219;SDS011;9744;49.364;7.484;2022-12-16T04:27:58;16.70;;;6.87;;
19219;SDS011;9744;49.364;7.484;2022-12-16T04:30:25;15.23;;;6.60;;
19219;SDS011;9744;49.364;7.484;2022-12-16T04:32:56;16.30;;;6.90;;
19219;SDS011;9744;49.364;7.484;2022-12-16T04:35:43;14.27;;;6.57;;
19219;SDS011;9744;49.364;7.484;2022-12-16T04:38:29;13.87;;;6.57;;
19219;SDS011;9744;49.364;7.484;2022-12-16T04:41:14;14.80;;;6.97;;
19219;SDS011;9744;49.364;7.484;2022-12-16T04:43:59;15.70;;;6.83;;
19219;SDS011;9744;49.364;7.484;2022-12-16T04:46:43;15.03;;;7.33;;
19219;SDS011;9744;49.364;7.484;2022-12-16T04:49:28;15.50;;;7.03;;
19219;SDS011;9744;49.364;7.484;2022-12-16T04:52:14;18.33;;;7.00;;
19219;SDS011;9744;49.364;7.484;2022-12-16T04:54:59;16.27;;;6.93;;
19219;SDS011;9744;49.364;7.484;2022-12-16T04:57:46;16.00;;;6.80;;
19219;SDS011;9744;49.364;7.484;2022-12-16T05:00:31;17.53;;;7.20;;
19219;SDS011;9744;49.364;7.484;2022-12-16T05:03:16;14.80;;;7.27;;
19219;SDS011;9744;49.364;7.484;2022-12-16T05:06:01;17.70;;;7.57;;
19219;SDS011;9744;49.364;7.484;2022-12-16T05:08:46;14.77;;;6.40;;
19219;SDS011;9744;49.364;7.484;2022-12-16T05:11:31;16.17;;;7.20;;
19219;SDS011;9744;49.364;7.484;2022-12-16T05:14:16;17.10;;;7.57;;
19219;SDS011;9744;49.364;7.484;2022-12-16T05:17:00;16.77;;;7.37;;
19219;SDS011;9744;49.364;7.484;2022-12-16T05:19:45;19.50;;;7.73;;
19219;SDS011;9744;49.364;7.484;2022-12-16T05:22:29;16.67;;;7.50;;
19219;SDS011;9744;49.364;7.484;2022-12-16T05:25:16;20.67;;;8.83;;
19219;SDS011;9744;49.364;7.484;2022-12-16T05:28:01;21.50;;;8.90;;
19219;SDS011;9744;49.364;7.484;2022-12-16T05:30:45;21.73;;;8.97;;
19219;SDS011;9744;49.364;7.484;2022-12-16T05:33:30;19.10;;;8.30;;
19219;SDS011;9744;49.364;7.484;2022-12-16T05:36:16;18.60;;;8.23;;
19219;SDS011;9744;49.364;7.484;2022-12-16T05:39:01;18.83;;;7.80;;
19219;SDS011;9744;49.364;7.484;2022-12-16T05:41:47;19.77;;;7.67;;
19219;SDS011;9744;49.364;7.484;2022-12-16T05:44:32;18.17;;;8.17;;
19219;SDS011;9744;49.364;7.484;2022-12-16T05:47:16;22.40;;;9.23;;
19219;SDS011;9744;49.364;7.484;2022-12-16T05:50:01;20.97;;;8.67;;
19219;SDS011;9744;49.364;7.484;2022-12-16T05:52:48;21.90;;;8.73;;
19219;SDS011;9744;49.364;7.484;2022-12-16T05:55:33;22.90;;;9.50;;
19219;SDS011;9744;49.364;7.484;2022-12-16T05:58:19;20.50;;;8.70;;
19219;SDS011;9744;49.364;7.484;2022-12-16T06:01:04;25.37;;;9.20;;
19219;SDS011;9744;49.364;7.484;2022-12-16T06:03:49;24.40;;;8.80;;
19219;SDS011;9744;49.364;7.484;2022-12-16T06:06:34;20.17;;;8.77;;
19219;SDS011;9744;49.364;7.484;2022-12-16T06:09:19;21.27;;;9.67;;
19219;SDS011;9744;49.364;7.484;2022-12-16T06:12:15;19.73;;;8.87;;
19219;SDS011;9744;49.364;7.484;2022-12-16T06:15:01;21.30;;;8.97;;
19219;SDS011;9744;49.364;7.484;2022-12-16T06:17:46;23.70;;;10.23;;
19219;SDS011;9744;49.364;7.484;2022-12-16T06:20:32;19.30;;;8.40;;
19219;SDS011;9744;49.364;7.484;2022-12-16T06:23:17;21.83;;;8.77;;
19219;SDS011;9744;49.364;7.484;2022-12-16T06:26:02;20.03;;;7.83;;
19219;SDS011;9744;49.364;7.484;2022-12-16T06:28:47;20.10;;;8.00;;
19219;SDS011;9744;49.364;7.484;2022-12-16T06:31:33;17.37;;;8.40;;
19219;SDS011;9744;49.364;7.484;2022-12-16T06:34:18;20.53;;;9.13;;
19219;SDS011;9744;49.364;7.484;2022-12-16T06:37:02;20.83;;;8.63;;
19219;SDS011;9744;49.364;7.484;2022-12-16T06:39:47;19.00;;;8.27;;
19219;SDS011;9744;49.364;7.484;2022-12-16T06:42:31;21.63;;;9.40;;
19219;SDS011;9744;49.364;7.484;2022-12-16T06:45:16;19.97;;;8.93;;
19219;SDS011;9744;49.364;7.484;2022-12-16T06:48:02;27.83;;;9.83;;
19219;SDS011;9744;49.364;7.484;2022-12-16T06:50:47;30.90;;;12.60;;
19219;SDS011;9744;49.364;7.484;2022-12-16T06:53:32;45.97;;;17.20;;
19219;SDS011;9744;49.364;7.484;2022-12-16T06:56:16;26.20;;;10.77;;
19219;SDS011;9744;49.364;7.484;2022-12-16T06:59:01;29.33;;;11.03;;
19219;SDS011;9744;49.364;7.484;2022-12-16T07:01:48;25.20;;;9.90;;
19219;SDS011;9744;49.364;7.484;2022-12-16T07:04:33;24.77;;;8.43;;
19219;SDS011;9744;49.364;7.484;2022-12-16T07:07:17;17.77;;;7.53;;
19219;SDS011;9744;49.364;7.484;2022-12-16T07:10:02;16.60;;;6.97;;
19219;SDS011;9744;49.364;7.484;2022-12-16T07:12:47;13.80;;;6.23;;
19219;SDS011;9744;49.364;7.484;2022-12-16T07:15:31;15.37;;;5.83;;
19219;SDS011;9744;49.364;7.484;2022-12-16T07:18:16;16.47;;;6.20;;
19219;SDS011;9744;49.364;7.484;2022-12-16T07:21:02;13.03;;;5.67;;
19219;SDS011;9744;49.364;7.484;2022-12-16T07:23:47;13.80;;;6.13;;
19219;SDS011;9744;49.364;7.484;2022-12-16T07:26:31;17.47;;;6.43;;
19219;SDS011;9744;49.364;7.484;2022-12-16T07:29:16;18.27;;;7.97;;
19219;SDS011;9744;49.364;7.484;2022-12-16T07:32:00;12.23;;;5.70;;
19219;SDS011;9744;49.364;7.484;2022-12-16T07:34:45;10.23;;;4.97;;
19219;SDS011;9744;49.364;7.484;2022-12-16T07:37:31;13.10;;;6.03;;
19219;SDS011;9744;49.364;7.484;2022-12-16T07:40:15;14.60;;;7.17;;
19219;SDS011;9744;49.364;7.484;2022-12-16T07:43:00;18.07;;;7.60;;
19219;SDS011;9744;49.364;7.484;2022-12-16T07:45:45;19.37;;;7.63;;
19219;SDS011;9744;49.364;7.484;2022-12-16T07:48:38;15.50;;;7.03;;
19219;SDS011;9744;49.364;7.484;2022-12-16T07:51:22;12.83;;;6.40;;
19219;SDS011;9744;49.364;7.484;2022-12-16T07:54:17;16.30;;;6.10;;
19219;SDS011;9744;49.364;7.484;2022-12-16T07:57:01;12.00;;;5.40;;
19219;SDS011;9744;49.364;7.484;2022-12-16T07:59:46;16.00;;;5.57;;
19219;SDS011;9744;49.364;7.484;2022-12-16T08:02:37;12.50;;;4.87;;
19219;SDS011;9744;49.364;7.484;2022-12-16T08:05:22;11.77;;;4.90;;
19219;SDS011;9744;49.364;7.484;2022-12-16T08:08:06;13.03;;;5.03;;
19219;SDS011;9744;49.364;7.484;2022-12-16T08:10:52;10.03;;;5.10;;
19219;SDS011;9744;49.364;7.484;2022-12-16T08:13:37;11.83;;;5.70;;
19219;SDS011;9744;49.364;7.484;2022-12-16T08:16:22;10.50;;;4.93;;
19219;SDS011;9744;49.364;7.484;2022-12-16T08:19:06;17.70;;;5.10;;
19219;SDS011;9744;49.364;7.484;2022-12-16T08:21:50;15.33;;;5.83;;
19219;SDS011;9744;49.364;7.484;2022-12-16T08:24:34;15.43;;;6.60;;
19219;SDS011;9744;49.364;7.484;2022-12-16T08:27:20;13.73;;;5.90;;
19219;SDS011;9744;49.364;7.484;2022-12-16T08:30:06;14.67;;;5.87;;
19219;SDS011;9744;49.364;7.484;2022-12-16T08:32:51;10.53;;;4.77;;
19219;SDS011;9744;49.364;7.484;2022-12-16T08:35:35;9.90;;;4.77;;
19219;SDS011;9744;49.364;7.484;2022-12-16T08:38:20;9.60;;;4.60;;
19219;SDS011;9744;49.364;7.484;2022-12-16T08:41:04;12.37;;;4.87;;
19219;SDS011;9744;49.364;7.484;2022-12-16T08:43:51;11.20;;;4.80;;
19219;SDS011;9744;49.364;7.484;2022-12-16T08:46:36;9.73;;;4.37;;
19219;SDS011;9744;49.364;7.484;2022-12-16T08:49:20;12.70;;;4.83;;
19219;SDS011;9744;49.364;7.484;2022-12-16T08:52:05;10.13;;;4.77;;
19219;SDS011;9744;49.364;7.484;2022-12-16T08:54:49;14.43;;;5.13;;
19219;SDS011;9744;49.364;7.484;2022-12-16T08:57:34;11.33;;;4.43;;
19219;SDS011;9744;49.364;7.484;2022-12-16T09:00:20;9.60;;;4.50;;
19219;SDS011;9744;49.364;7.484;2022-12-16T09:03:05;11.30;;;4.43;;
19219;SDS011;9744;49.364;7.484;2022-12-16T09:05:49;12.30;;;5.03;;
19219;SDS011;9744;49.364;7.484;2022-12-16T09:08:34;13.57;;;4.90;;
19219;SDS011;9744;49.364;7.484;2022-12-16T09:11:18;12.13;;;5.60;;
19219;SDS011;9744;49.364;7.484;2022-12-16T09:14:03;12.07;;;4.97;;
19219;SDS011;9744;49.364;7.484;2022-12-16T09:16:49;15.57;;;6.93;;
19219;SDS011;9744;49.364;7.484;2022-12-16T09:19:34;20.93;;;8.23;;
19219;SDS011;9744;49.364;7.484;2022-12-16T09:22:18;22.07;;;8.20;;
19219;SDS011;9744;49.364;7.484;2022-12-16T09:25:14;17.40;;;6.80;;
19219;SDS011;9744;49.364;7.484;2022-12-16T09:27:59;15.10;;;6.70;;
19219;SDS011;9744;49.364;7.484;2022-12-16T09:30:44;11.67;;;5.80;;
19219;SDS011;9744;49.364;7.484;2022-12-16T09:33:30;10.40;;;5.07;;
19219;SDS011;9744;49.364;7.484;2022-12-16T09:36:15;10.30;;;4.73;;
19219;SDS011;9744;49.364;7.484;2022-12-16T09:38:59;11.37;;;4.80;;
19219;SDS011;9744;49.364;7.484;2022-12-16T09:41:44;8.87;;;4.63;;
19219;SDS011;9744;49.364;7.484;2022-12-16T09:44:44;9.40;;;4.47;;
19219;SDS011;9744;49.364;7.484;2022-12-16T09:47:39;8.53;;;4.20;;
19219;SDS011;9744;49.364;7.484;2022-12-16T09:50:32;12.73;;;4.27;;
19219;SDS011;9744;49.364;7.484;2022-12-16T09:53:21;9.67;;;4.03;;
19219;SDS011;9744;49.364;7.484;2022-12-16T09:56:06;11.00;;;4.10;;
19219;SDS011;9744;49.364;7.484;2022-12-16T09:59:09;12.07;;;4.17;;
19219;SDS011;9744;49.364;7.484;2022-12-16T10:01:56;10.57;;;4.30;;
19219;SDS011;9744;49.364;7.484;2022-12-16T10:04:41;11.03;;;4.80;;
19219;SDS011;9744;49.364;7.484;2022-12-16T10:07:29;9.67;;;4.40;;
19219;SDS011;9744;49.364;7.484;2022-12-16T10:10:16;16.10;;;4.80;;
19219;SDS011;9744;49.364;7.484;2022-12-16T10:13:07;11.97;;;5.30;;
19219;SDS011;9744;49.364;7.484;2022-12-16T10:15:59;9.20;;;4.68;;
19219;SDS011;9744;49.364;7.484;2022-12-16T10:18:53;9.70;;;5.10;;
19219;SDS011;9744;49.364;7.484;2022-12-16T10:21:43;10.95;;;4.25;;
19219;SDS011;9744;49.364;7.484;2022-12-16T10:24:51;8.38;;;3.95;;
19219;SDS011;9744;49.364;7.484;2022-12-16T10:27:41;6.22;;;3.80;;
19219;SDS011;9744;49.364;7.484;2022-12-16T10:30:28;9.48;;;4.00;;
19219;SDS011;9744;49.364;7.484;2022-12-16T10:33:14;9.73;;;4.10;;
19219;SDS011;9744;49.364;7.484;2022-12-16T10:36:00;10.88;;;4.43;;
19219;SDS011;9744;49.364;7.484;2022-12-16T10:38:47;12.52;;;4.63;;
19219;SDS011;9744;49.364;7.484;2022-12-16T10:41:37;9.55;;;4.15;;
19219;SDS011;9744;49.364;7.484;2022-12-16T10:44:24;8.60;;;4.20;;
19219;SDS011;9744;49.364;7.484;2022-12-16T10:47:16;9.48;;;3.88;;
19219;SDS011;9744;49.364;7.484;2022-12-16T10:50:00;13.95;;;5.88;;
19219;SDS011;9744;49.364;7.484;2022-12-16T10:52:53;12.77;;;5.07;;
19219;SDS011;9744;49.364;7.484;2022-12-16T10:55:46;9.40;;;4.43;;
19219;SDS011;9744;49.364;7.484;2022-12-16T10:58:41;8.85;;;4.13;;
19219;SDS011;9744;49.364;7.484;2022-12-16T11:01:30;7.30;;;4.32;;
19219;SDS011;9744;49.364;7.484;2022-12-16T11:04:31;6.78;;;4.43;;
19219;SDS011;9744;49.364;7.484;2022-12-16T11:07:24;11.50;;;4.75;;
19219;SDS011;9744;49.364;7.484;2022-12-16T11:13:20;11.40;;;5.85;;
19219;SDS011;9744;49.364;7.484;2022-12-16T11:16:10;9.77;;;4.88;;
19219;SDS011;9744;49.364;7.484;2022-12-16T11:18:57;11.18;;;5.47;;
19219;SDS011;9744;49.364;7.484;2022-12-16T11:21:43;10.48;;;5.22;;
19219;SDS011;9744;49.364;7.484;2022-12-16T11:24:28;19.90;;;8.55;;
19219;SDS011;9744;49.364;7.484;2022-12-16T11:27:14;11.43;;;6.22;;
19219;SDS011;9744;49.364;7.484;2022-12-16T11:30:14;22.50;;;9.25;;
19219;SDS011;9744;49.364;7.484;2022-12-16T11:33:05;13.80;;;6.63;;
19219;SDS011;9744;49.364;7.484;2022-12-16T11:36:00;15.32;;;7.03;;
19219;SDS011;9744;49.364;7.484;2022-12-16T11:38:49;11.77;;;4.95;;
19219;SDS011;9744;49.364;7.484;2022-12-16T11:41:36;8.00;;;4.30;;
19219;SDS011;9744;49.364;7.484;2022-12-16T11:44:25;7.35;;;4.32;;
19219;SDS011;9744;49.364;7.484;2022-12-16T11:47:15;9.57;;;5.15;;
19219;SDS011;9744;49.364;7.484;2022-12-16T11:50:08;12.85;;;4.97;;
19219;SDS011;9744;49.364;7.484;2022-12-16T11:52:56;11.85;;;5.07;;
19219;SDS011;9744;49.364;7.484;2022-12-16T11:55:43;9.15;;;4.72;;
19219;SDS011;9744;49.364;7.484;2022-12-16T11:58:33;9.20;;;4.13;;
19219;SDS011;9744;49.364;7.484;2022-12-16T12:01:23;12.15;;;4.82;;
19219;SDS011;9744;49.364;7.484;2022-12-16T12:04:12;10.90;;;5.25;;
19219;SDS011;9744;49.364;7.484;2022-12-16T12:07:03;7.75;;;4.50;;
19219;SDS011;9744;49.364;7.484;2022-12-16T12:10:05;9.68;;;4.68;;
19219;SDS011;9744;49.364;7.484;2022-12-16T12:19:03;8.85;;;4.70;;
19219;SDS011;9744;49.364;7.484;2022-12-16T12:21:54;9.98;;;4.15;;
19219;SDS011;9744;49.364;7.484;2022-12-16T12:24:47;11.57;;;4.93;;
19219;SDS011;9744;49.364;7.484;2022-12-16T12:27:37;8.98;;;4.50;;
19219;SDS011;9744;49.364;7.484;2022-12-16T12:30:30;10.60;;;4.40;;
19219;SDS011;9744;49.364;7.484;2022-12-16T12:33:25;8.32;;;4.47;;
19219;SDS011;9744;49.364;7.484;2022-12-16T12:36:18;7.32;;;4.03;;
19219;SDS011;9744;49.364;7.484;2022-12-16T12:41:52;9.27;;;4.13;;
19219;SDS011;9744;49.364;7.484;2022-12-16T12:44:45;7.47;;;3.70;;
19219;SDS011;9744;49.364;7.484;2022-12-16T12:47:40;8.23;;;4.50;;
19219;SDS011;9744;49.364;7.484;2022-12-16T12:50:32;6.82;;;3.53;;
19219;SDS011;9744;49.364;7.484;2022-12-16T12:53:37;7.32;;;4.20;;
19219;SDS011;9744;49.364;7.484;2022-12-16T12:56:30;9.20;;;4.13;;
19219;SDS011;9744;49.364;7.484;2022-12-16T12:59:25;8.57;;;3.83;;
19219;SDS011;9744;49.364;7.484;2022-12-16T13:02:22;8.63;;;4.63;;
19219;SDS011;9744;49.364;7.484;2022-12-16T13:11:15;9.20;;;5.78;;
19219;SDS011;9744;49.364;7.484;2022-12-16T13:14:00;7.30;;;4.90;;
19219;SDS011;9744;49.364;7.484;2022-12-16T13:16:56;8.85;;;5.32;;
19219;SDS011;9744;49.364;7.484;2022-12-16T13:28:27;8.75;;;4.75;;
19219;SDS011;9744;49.364;7.484;2022-12-16T13:31:14;11.85;;;4.88;;
19219;SDS011;9744;49.364;7.484;2022-12-16T13:34:04;7.53;;;4.07;;
19219;SDS011;9744;49.364;7.484;2022-12-16T13:36:51;9.63;;;3.17;;
19219;SDS011;9744;49.364;7.484;2022-12-16T13:44:57;7.90;;;3.40;;
19219;SDS011;9744;49.364;7.484;2022-12-16T13:47:59;7.57;;;3.63;;
19219;SDS011;9744;49.364;7.484;2022-12-16T13:50:49;13.45;;;6.85;;
19219;SDS011;9744;49.364;7.484;2022-12-16T13:53:39;23.52;;;10.90;;
19219;SDS011;9744;49.364;7.484;2022-12-16T13:56:29;13.13;;;5.40;;
19219;SDS011;9744;49.364;7.484;2022-12-16T13:59:19;6.75;;;3.45;;
19219;SDS011;9744;49.364;7.484;2022-12-16T14:21:58;4.57;;;3.10;;
19219;SDS011;9744;49.364;7.484;2022-12-16T14:24:53;6.88;;;3.40;;
19219;SDS011;9744;49.364;7.484;2022-12-16T14:27:35;7.80;;;4.18;;
19219;SDS011;9744;49.364;7.484;2022-12-16T14:30:21;7.63;;;3.35;;
19219;SDS011;9744;49.364;7.484;2022-12-16T14:33:14;4.88;;;3.35;;
19219;SDS011;9744;49.364;7.484;2022-12-16T14:35:59;10.00;;;3.75;;
19219;SDS011;9744;49.364;7.484;2022-12-16T14:38:46;10.57;;;3.90;;
19219;SDS011;9744;49.364;7.484;2022-12-16T14:41:49;13.88;;;6.93;;
19219;SDS011;9744;49.364;7.484;2022-12-16T14:44:35;11.30;;;4.95;;
19219;SDS011;9744;49.364;7.484;2022-12-16T14:47:21;14.90;;;7.97;;
19219;SDS011;9744;49.364;7.484;2022-12-16T14:50:14;15.77;;;8.05;;
19219;SDS011;9744;49.364;7.484;2022-12-16T14:53:11;13.25;;;7.00;;
19219;SDS011;9744;49.364;7.484;2022-12-16T14:56:17;11.90;;;5.13;;
19219;SDS011;9744;49.364;7.484;2022-12-16T14:59:07;6.78;;;3.92;;
19219;SDS011;9744;49.364;7.484;2022-12-16T15:01:54;6.22;;;3.58;;
19219;SDS011;9744;49.364;7.484;2022-12-16T15:04:41;8.30;;;4.50;;
19219;SDS011;9744;49.364;7.484;2022-12-16T15:07:27;9.73;;;4.18;;
19219;SDS011;9744;49.364;7.484;2022-12-16T15:10:32;7.63;;;3.90;;
19219;SDS011;9744;49.364;7.484;2022-12-16T15:13:18;11.30;;;4.60;;
19219;SDS011;9744;49.364;7.484;2022-12-16T15:16:03;12.48;;;5.85;;
19219;SDS011;9744;49.364;7.484;2022-12-16T15:18:57;11.68;;;5.75;;
19219;SDS011;9744;49.364;7.484;2022-12-16T15:21:44;35.50;;;12.13;;
19219;SDS011;9744;49.364;7.484;2022-12-16T15:24:31;14.15;;;7.25;;
19219;SDS011;9744;49.364;7.484;2022-12-16T15:27:24;23.80;;;10.85;;
19219;SDS011;9744;49.364;7.484;2022-12-16T15:33:20;19.38;;;9.13;;
19219;SDS011;9744;49.364;7.484;2022-12-16T15:36:11;18.08;;;8.85;;
19219;SDS011;9744;49.364;7.484;2022-12-16T15:39:08;23.90;;;10.60;;
19219;SDS011;9744;49.364;7.484;2022-12-16T15:41:53;18.58;;;10.48;;
19219;SDS011;9744;49.364;7.484;2022-12-16T15:44:43;21.77;;;10.45;;
19219;SDS011;9744;49.364;7.484;2022-12-16T15:47:32;18.95;;;10.05;;
19219;SDS011;9744;49.364;7.484;2022-12-16T15:50:19;19.67;;;10.07;;
19219;SDS011;9744;49.364;7.484;2022-12-16T15:53:24;21.95;;;10.48;;
19219;SDS011;9744;49.364;7.484;2022-12-16T15:56:15;20.23;;;9.82;;
19219;SDS011;9744;49.364;7.484;2022-12-16T15:59:17;20.67;;;10.15;;
19219;SDS011;9744;49.364;7.484;2022-12-16T16:02:09;30.75;;;14.50;;
19219;SDS011;9744;49.364;7.484;2022-12-16T16:04:59;30.70;;;14.73;;
19219;SDS011;9744;49.364;7.484;2022-12-16T16:07:44;24.50;;;11.70;;
19219;SDS011;9744;49.364;7.484;2022-12-16T16:10:30;21.00;;;11.85;;
19219;SDS011;9744;49.364;7.484;2022-12-16T16:13:14;28.10;;;13.18;;
19219;SDS011;9744;49.364;7.484;2022-12-16T16:15:59;23.42;;;11.90;;
19219;SDS011;9744;49.364;7.484;2022-12-16T16:18:46;27.63;;;13.25;;
19219;SDS011;9744;49.364;7.484;2022-12-16T16:21:30;24.70;;;12.35;;
19219;SDS011;9744;49.364;7.484;2022-12-16T16:24:15;30.70;;;13.10;;
19219;SDS011;9744;49.364;7.484;2022-12-16T16:27:01;30.33;;;14.63;;
19219;SDS011;9744;49.364;7.484;2022-12-16T16:29:46;31.10;;;14.63;;
19219;SDS011;9744;49.364;7.484;2022-12-16T16:32:31;29.60;;;13.20;;
19219;SDS011;9744;49.364;7.484;2022-12-16T16:35:16;22.88;;;11.90;;
19219;SDS011;9744;49.364;7.484;2022-12-16T16:38:00;18.83;;;10.25;;
19219;SDS011;9744;49.364;7.484;2022-12-16T16:40:44;17.20;;;9.00;;
19219;SDS011;9744;49.364;7.484;2022-12-16T16:43:31;19.10;;;9.02;;
19219;SDS011;9744;49.364;7.484;2022-12-16T16:46:31;17.60;;;8.88;;
19219;SDS011;9744;49.364;7.484;2022-12-16T16:49:20;19.55;;;9.02;;
19219;SDS011;9744;49.364;7.484;2022-12-16T16:52:09;15.10;;;8.00;;
19219;SDS011;9744;49.364;7.484;2022-12-16T16:54:55;14.93;;;7.90;;
19219;SDS011;9744;49.364;7.484;2022-12-16T16:57:39;16.65;;;8.50;;
19219;SDS011;9744;49.364;7.484;2022-12-16T17:00:26;24.52;;;11.05;;
19219;SDS011;9744;49.364;7.484;2022-12-16T17:03:11;21.73;;;8.90;;
19219;SDS011;9744;49.364;7.484;2022-12-16T17:05:56;18.95;;;9.38;;
19219;SDS011;9744;49.364;7.484;2022-12-16T17:08:40;21.65;;;10.52;;
19219;SDS011;9744;49.364;7.484;2022-12-16T17:11:25;27.98;;;13.18;;
19219;SDS011;9744;49.364;7.484;2022-12-16T17:14:10;50.92;;;22.83;;
19219;SDS011;9744;49.364;7.484;2022-12-16T17:16:57;77.82;;;34.92;;
19219;SDS011;9744;49.364;7.484;2022-12-16T17:19:42;100.40;;;43.78;;
19219;SDS011;9744;49.364;7.484;2022-12-16T17:22:27;109.63;;;47.40;;